createdAt,value
2019-04-30T00:00:19.615Z,0.00
2019-04-30T00:01:19.610Z,0.00
2019-04-30T00:02:19.595Z,0.00
2019-04-30T00:03:19.798Z,0.00
2019-04-30T00:04:19.575Z,0.00
2019-04-30T00:05:19.566Z,0.00
2019-04-30T00:06:19.586Z,0.00
2019-04-30T00:07:19.542Z,0.00
2019-04-30T00:08:19.526Z,0.00
2019-04-30T00:09:19.520Z,0.00
2019-04-30T00:10:19.505Z,0.00
2019-04-30T00:11:19.670Z,0.00
2019-04-30T00:12:19.532Z,0.00
2019-04-30T00:13:20.938Z,0.00
2019-04-30T00:14:19.463Z,0.00
2019-04-30T00:15:19.702Z,0.00
2019-04-30T00:16:19.434Z,0.00
2019-04-30T00:17:19.856Z,0.00
2019-04-30T00:18:19.434Z,0.00
2019-04-30T00:19:29.677Z,0.00
2019-04-30T00:20:19.389Z,0.00
2019-04-30T00:21:19.382Z,0.00
2019-04-30T00:22:31.028Z,0.00
2019-04-30T00:23:22.698Z,0.00
2019-04-30T00:24:20.343Z,0.00
2019-04-30T00:25:19.788Z,0.00
2019-04-30T00:26:19.325Z,0.00
2019-04-30T00:27:21.052Z,0.00
2019-04-30T00:28:20.305Z,0.00
2019-04-30T00:29:26.655Z,0.00
2019-04-30T00:30:20.317Z,0.00
2019-04-30T00:31:23.606Z,0.00
2019-04-30T00:32:20.261Z,0.00
2019-04-30T00:33:22.263Z,0.00
2019-04-30T00:34:19.235Z,0.00
2019-04-30T00:35:19.767Z,0.00
2019-04-30T00:36:19.218Z,0.00
2019-04-30T00:37:19.201Z,0.00
2019-04-30T00:38:19.197Z,0.00
2019-04-30T00:39:19.180Z,0.00
2019-04-30T00:40:21.644Z,0.00
2019-04-30T00:41:20.195Z,0.00
2019-04-30T00:42:24.259Z,0.00
2019-04-30T00:43:20.133Z,0.00
2019-04-30T00:44:20.024Z,0.00
2019-04-30T00:45:19.112Z,0.00
2019-04-30T00:46:25.317Z,0.00
2019-04-30T00:47:20.136Z,0.00
2019-04-30T00:48:26.924Z,0.00
2019-04-30T00:49:23.365Z,0.00
2019-04-30T00:50:35.860Z,0.00
2019-04-30T00:51:21.308Z,0.00
2019-04-30T00:52:19.036Z,0.00
2019-04-30T00:53:19.061Z,0.00
2019-04-30T00:54:22.361Z,0.00
2019-04-30T00:55:20.004Z,0.00
2019-04-30T00:56:19.904Z,0.00
2019-04-30T00:57:18.977Z,0.00
2019-04-30T00:58:24.865Z,0.00
2019-04-30T00:59:19.996Z,0.00
2019-04-30T01:00:25.296Z,0.00
2019-04-30T01:01:19.929Z,0.00
2019-04-30T01:02:27.693Z,0.00
2019-04-30T01:03:19.911Z,0.00
2019-04-30T01:04:19.394Z,0.00
2019-04-30T01:05:18.905Z,0.00
2019-04-30T01:06:27.507Z,0.00
2019-04-30T01:07:19.864Z,0.00
2019-04-30T01:08:21.124Z,0.00
2019-04-30T01:09:19.844Z,0.00
2019-04-30T01:10:19.725Z,0.00
2019-04-30T01:11:18.860Z,0.00
2019-04-30T01:12:27.784Z,0.00
2019-04-30T01:13:19.798Z,0.00
2019-04-30T01:14:18.977Z,0.00
2019-04-30T01:15:19.116Z,0.00
2019-04-30T01:16:19.552Z,0.00
2019-04-30T01:17:18.984Z,0.00
2019-04-30T01:18:19.324Z,0.00
2019-04-30T01:19:29.463Z,0.00
2019-04-30T01:20:19.721Z,0.00
2019-04-30T01:21:29.110Z,0.00
2019-04-30T01:22:21.567Z,0.00
2019-04-30T01:23:19.700Z,0.00
2019-04-30T01:24:19.070Z,0.00
2019-04-30T01:25:20.671Z,0.00
2019-04-30T01:26:18.807Z,0.00
2019-04-30T01:27:18.837Z,0.00
2019-04-30T01:28:23.187Z,0.00
2019-04-30T01:29:19.622Z,0.00
2019-04-30T01:30:22.588Z,0.00
2019-04-30T01:31:18.802Z,0.00
2019-04-30T01:32:20.989Z,0.00
2019-04-30T01:33:19.123Z,0.00
2019-04-30T01:34:19.568Z,0.00
2019-04-30T01:35:19.104Z,0.00
2019-04-30T01:36:19.321Z,0.00
2019-04-30T01:37:20.479Z,0.00
2019-04-30T01:38:19.559Z,0.00
2019-04-30T01:39:19.565Z,0.00
2019-04-30T01:40:18.962Z,0.00
2019-04-30T01:41:20.345Z,0.00
2019-04-30T01:42:19.475Z,0.00
2019-04-30T01:43:23.198Z,0.00
2019-04-30T01:44:19.623Z,0.00
2019-04-30T01:45:18.874Z,0.00
2019-04-30T01:46:18.958Z,0.00
2019-04-30T01:47:21.535Z,0.00
2019-04-30T01:48:19.450Z,0.00
2019-04-30T01:49:20.221Z,0.00
2019-04-30T01:50:19.511Z,0.00
2019-04-30T01:51:21.654Z,0.00
2019-04-30T01:52:35.033Z,0.00
2019-04-30T01:53:19.356Z,0.00
2019-04-30T01:54:24.045Z,0.00
2019-04-30T01:55:19.727Z,0.00
2019-04-30T01:56:19.212Z,0.00
2019-04-30T01:57:19.295Z,0.00
2019-04-30T01:58:19.402Z,0.00
2019-04-30T01:59:19.066Z,0.00
2019-04-30T02:00:19.579Z,0.00
2019-04-30T02:01:19.035Z,0.00
2019-04-30T02:02:18.568Z,0.00
2019-04-30T02:03:19.316Z,0.00
2019-04-30T02:04:19.565Z,0.00
2019-04-30T02:05:18.886Z,0.00
2019-04-30T02:06:19.679Z,0.00
2019-04-30T02:07:19.064Z,0.00
2019-04-30T02:08:19.542Z,0.00
2019-04-30T02:09:18.855Z,0.00
2019-04-30T02:10:18.651Z,0.00
2019-04-30T02:11:18.964Z,0.00
2019-04-30T02:12:19.719Z,0.00
2019-04-30T02:13:18.905Z,0.00
2019-04-30T02:14:18.916Z,0.00
2019-04-30T02:15:19.259Z,0.00
2019-04-30T02:16:18.753Z,0.00
2019-04-30T02:17:19.253Z,0.00
2019-04-30T02:18:19.526Z,0.00
2019-04-30T02:19:18.831Z,0.00
2019-04-30T02:20:18.607Z,0.00
2019-04-30T02:21:19.479Z,0.00
2019-04-30T02:22:18.926Z,0.00
2019-04-30T02:23:29.708Z,0.00
2019-04-30T02:24:19.221Z,0.00
2019-04-30T02:25:19.520Z,0.00
2019-04-30T02:26:18.699Z,0.00
2019-04-30T02:27:19.133Z,0.00
2019-04-30T02:28:18.996Z,0.00
2019-04-30T02:29:19.119Z,0.00
2019-04-30T02:30:20.708Z,0.00
2019-04-30T02:31:19.466Z,0.00
2019-04-30T02:32:20.518Z,0.00
2019-04-30T02:33:19.786Z,0.00
2019-04-30T02:34:21.824Z,0.00
2019-04-30T02:35:19.447Z,0.00
2019-04-30T02:36:19.835Z,0.00
2019-04-30T02:37:20.859Z,0.00
2019-04-30T02:38:20.136Z,4.00
2019-04-30T02:39:20.196Z,4.00
2019-04-30T02:40:20.118Z,4.00
2019-04-30T02:41:19.342Z,148.00
2019-04-30T02:42:20.114Z,188.00
2019-04-30T02:43:20.189Z,188.00
2019-04-30T02:44:19.591Z,188.00
2019-04-30T02:45:19.742Z,188.00
2019-04-30T02:46:19.201Z,184.00
2019-04-30T02:47:20.225Z,184.00
2019-04-30T02:48:19.439Z,188.00
2019-04-30T02:49:20.179Z,184.00
2019-04-30T02:50:19.825Z,184.00
2019-04-30T02:51:20.020Z,4.00
2019-04-30T02:52:19.575Z,4.00
2019-04-30T02:53:19.905Z,8.00
2019-04-30T02:54:29.650Z,8.00
2019-04-30T02:55:19.441Z,0.00
2019-04-30T02:56:20.276Z,0.00
2019-04-30T02:57:22.883Z,0.00
2019-04-30T02:58:20.992Z,4.00
2019-04-30T02:59:20.078Z,4.00
2019-04-30T03:00:20.542Z,4.00
2019-04-30T03:01:19.947Z,4.00
2019-04-30T03:02:19.549Z,4.00
2019-04-30T03:03:20.300Z,4.00
2019-04-30T03:04:19.629Z,4.00
2019-04-30T03:05:20.169Z,4.00
2019-04-30T03:06:20.373Z,4.00
2019-04-30T03:07:19.419Z,4.00
2019-04-30T03:08:19.848Z,4.00
2019-04-30T03:09:20.074Z,4.00
2019-04-30T03:10:19.782Z,4.00
2019-04-30T03:11:20.294Z,4.00
2019-04-30T03:12:19.732Z,4.00
2019-04-30T03:13:19.973Z,4.00
2019-04-30T03:14:19.876Z,8.00
2019-04-30T03:15:22.310Z,8.00
2019-04-30T03:16:20.757Z,8.00
2019-04-30T03:17:17.433Z,8.00
2019-04-30T03:18:19.673Z,4.00
2019-04-30T03:19:19.649Z,4.00
2019-04-30T03:20:31.337Z,4.00
2019-04-30T03:21:19.141Z,4.00
2019-04-30T03:22:20.147Z,4.00
2019-04-30T03:23:19.514Z,4.00
2019-04-30T03:24:19.985Z,4.00
2019-04-30T03:25:29.853Z,4.00
2019-04-30T03:26:19.841Z,4.00
2019-04-30T03:27:17.330Z,4.00
2019-04-30T03:28:19.962Z,4.00
2019-04-30T03:29:23.364Z,4.00
2019-04-30T03:30:21.741Z,4.00
2019-04-30T03:31:21.970Z,4.00
2019-04-30T03:32:22.259Z,4.00
2019-04-30T03:33:17.257Z,4.00
2019-04-30T03:34:24.562Z,4.00
2019-04-30T03:35:22.331Z,8.00
2019-04-30T03:36:21.331Z,8.00
2019-04-30T03:37:19.687Z,8.00
2019-04-30T03:38:17.202Z,8.00
2019-04-30T03:39:19.693Z,8.00
2019-04-30T03:40:20.093Z,8.00
2019-04-30T03:41:19.714Z,8.00
2019-04-30T03:42:19.685Z,8.00
2019-04-30T03:43:17.141Z,8.00
2019-04-30T03:44:24.699Z,8.00
2019-04-30T03:45:20.422Z,8.00
2019-04-30T03:46:19.300Z,8.00
2019-04-30T03:47:17.101Z,8.00
2019-04-30T03:48:19.819Z,8.00
2019-04-30T03:49:19.960Z,8.00
2019-04-30T03:50:19.833Z,8.00
2019-04-30T03:51:17.062Z,4.00
2019-04-30T03:52:19.736Z,4.00
2019-04-30T03:53:17.035Z,4.00
2019-04-30T03:54:19.188Z,4.00
2019-04-30T03:55:17.014Z,4.00
2019-04-30T03:56:29.848Z,4.00
2019-04-30T03:57:16.992Z,8.00
2019-04-30T03:58:20.875Z,8.00
2019-04-30T03:59:19.689Z,8.00
2019-04-30T04:00:16.962Z,8.00
2019-04-30T04:01:19.434Z,8.00
2019-04-30T04:02:16.952Z,8.00
2019-04-30T04:03:19.707Z,8.00
2019-04-30T04:04:16.925Z,8.00
2019-04-30T04:05:16.905Z,8.00
2019-04-30T04:06:21.282Z,8.00
2019-04-30T04:07:16.881Z,8.00
2019-04-30T04:08:19.322Z,8.00
2019-04-30T04:09:16.883Z,8.00
2019-04-30T04:10:19.301Z,8.00
2019-04-30T04:11:16.833Z,8.00
2019-04-30T04:12:16.852Z,8.00
2019-04-30T04:13:16.815Z,8.00
2019-04-30T04:14:19.587Z,8.00
2019-04-30T04:15:16.803Z,8.00
2019-04-30T04:16:19.347Z,8.00
2019-04-30T04:17:16.774Z,12.00
2019-04-30T04:18:16.764Z,12.00
2019-04-30T04:19:19.476Z,8.00
2019-04-30T04:20:16.774Z,8.00
2019-04-30T04:21:18.090Z,8.00
2019-04-30T04:22:16.714Z,8.00
2019-04-30T04:23:19.116Z,8.00
2019-04-30T04:24:16.693Z,8.00
2019-04-30T04:25:16.684Z,8.00
2019-04-30T04:26:16.693Z,8.00
2019-04-30T04:27:29.810Z,8.00
2019-04-30T04:28:16.648Z,8.00
2019-04-30T04:29:19.372Z,8.00
2019-04-30T04:30:16.632Z,8.00
2019-04-30T04:31:19.084Z,8.00
2019-04-30T04:32:16.657Z,12.00
2019-04-30T04:33:16.594Z,12.00
2019-04-30T04:34:19.444Z,12.00
2019-04-30T04:35:16.582Z,12.00
2019-04-30T04:36:16.561Z,12.00
2019-04-30T04:37:16.551Z,12.00
2019-04-30T04:38:16.574Z,12.00
2019-04-30T04:39:16.529Z,12.00
2019-04-30T04:40:16.513Z,8.00
2019-04-30T04:41:16.505Z,8.00
2019-04-30T04:42:19.096Z,8.00
2019-04-30T04:43:16.479Z,8.00
2019-04-30T04:44:16.477Z,8.00
2019-04-30T04:45:19.576Z,8.00
2019-04-30T04:46:16.452Z,12.00
2019-04-30T04:47:19.451Z,12.00
2019-04-30T04:48:16.423Z,12.00
2019-04-30T04:49:16.470Z,12.00
2019-04-30T04:50:16.405Z,12.00
2019-04-30T04:51:31.320Z,12.00
2019-04-30T04:52:20.625Z,8.00
2019-04-30T04:53:16.378Z,8.00
2019-04-30T04:54:16.364Z,12.00
2019-04-30T04:55:16.404Z,12.00
2019-04-30T04:56:18.948Z,12.00
2019-04-30T04:57:19.304Z,12.00
2019-04-30T04:59:30.332Z,176.00
2019-04-30T05:00:30.366Z,204.00
2019-04-30T05:01:30.313Z,212.00
2019-04-30T05:02:32.638Z,204.00
2019-04-30T05:03:30.290Z,204.00
2019-04-30T05:04:30.279Z,204.00
2019-04-30T05:05:30.263Z,204.00
2019-04-30T05:06:30.261Z,204.00
2019-04-30T05:07:30.244Z,200.00
2019-04-30T05:08:30.229Z,200.00
2019-04-30T05:09:30.214Z,200.00
2019-04-30T05:10:30.212Z,200.00
2019-04-30T05:11:31.722Z,200.00
2019-04-30T05:12:30.184Z,196.00
2019-04-30T05:13:30.177Z,192.00
2019-04-30T05:14:30.160Z,184.00
2019-04-30T05:15:30.153Z,180.00
2019-04-30T05:16:30.139Z,180.00
2019-04-30T05:17:32.080Z,176.00
2019-04-30T05:18:30.124Z,180.00
2019-04-30T05:19:30.105Z,180.00
2019-04-30T05:20:30.094Z,176.00
2019-04-30T05:21:41.686Z,184.00
2019-04-30T05:22:31.122Z,180.00
2019-04-30T05:23:30.068Z,176.00
2019-04-30T05:24:30.057Z,180.00
2019-04-30T05:25:30.041Z,176.00
2019-04-30T05:26:30.031Z,176.00
2019-04-30T05:27:30.365Z,176.00
2019-04-30T05:28:30.284Z,180.00
2019-04-30T05:29:38.666Z,180.00
2019-04-30T05:30:29.980Z,180.00
2019-04-30T05:31:29.975Z,176.00
2019-04-30T05:32:29.965Z,180.00
2019-04-30T05:33:29.948Z,176.00
2019-04-30T05:34:29.980Z,176.00
2019-04-30T05:35:31.107Z,172.00
2019-04-30T05:36:29.922Z,176.00
2019-04-30T05:37:29.905Z,180.00
2019-04-30T05:38:31.370Z,176.00
2019-04-30T05:39:29.878Z,176.00
2019-04-30T05:40:29.923Z,176.00
2019-04-30T05:41:29.863Z,184.00
2019-04-30T05:42:29.849Z,176.00
2019-04-30T05:43:29.837Z,180.00
2019-04-30T05:44:29.935Z,176.00
2019-04-30T05:45:29.818Z,176.00
2019-04-30T05:46:30.028Z,180.00
2019-04-30T05:47:29.790Z,180.00
2019-04-30T05:48:29.782Z,176.00
2019-04-30T05:49:29.771Z,176.00
2019-04-30T05:50:29.760Z,176.00
2019-04-30T05:51:29.752Z,176.00
2019-04-30T05:52:29.779Z,176.00
2019-04-30T05:53:29.734Z,176.00
2019-04-30T05:54:29.720Z,176.00
2019-04-30T05:55:29.704Z,172.00
2019-04-30T05:56:30.470Z,168.00
2019-04-30T05:57:29.679Z,172.00
2019-04-30T05:58:30.128Z,172.00
2019-04-30T05:59:29.659Z,176.00
2019-04-30T06:00:41.096Z,180.00
2019-04-30T06:01:29.711Z,172.00
2019-04-30T06:02:33.649Z,172.00
2019-04-30T06:03:33.034Z,172.00
2019-04-30T06:04:29.631Z,172.00
2019-04-30T06:05:29.590Z,172.00
2019-04-30T06:06:29.579Z,172.00
2019-04-30T06:07:29.984Z,180.00
2019-04-30T06:08:29.556Z,176.00
2019-04-30T06:09:33.753Z,172.00
2019-04-30T06:10:29.599Z,172.00
2019-04-30T06:11:29.527Z,172.00
2019-04-30T06:12:29.518Z,172.00
2019-04-30T06:13:31.962Z,172.00
2019-04-30T06:14:29.499Z,180.00
2019-04-30T06:15:29.488Z,188.00
2019-04-30T06:16:29.867Z,196.00
2019-04-30T06:17:29.469Z,200.00
2019-04-30T06:18:29.486Z,200.00
2019-04-30T06:19:29.438Z,204.00
2019-04-30T06:20:29.425Z,204.00
2019-04-30T06:21:29.573Z,204.00
2019-04-30T06:22:29.405Z,208.00
2019-04-30T06:23:29.533Z,208.00
2019-04-30T06:24:30.270Z,208.00
2019-04-30T06:25:37.197Z,208.00
2019-04-30T06:26:30.366Z,208.00
2019-04-30T06:27:29.354Z,208.00
2019-04-30T06:28:29.335Z,212.00
2019-04-30T06:29:29.379Z,212.00
2019-04-30T06:30:29.824Z,212.00
2019-04-30T06:31:40.399Z,212.00
2019-04-30T06:32:29.578Z,212.00
2019-04-30T06:33:29.288Z,212.00
2019-04-30T06:34:29.496Z,212.00
2019-04-30T06:35:29.540Z,212.00
2019-04-30T06:36:29.250Z,212.00
2019-04-30T06:37:31.612Z,212.00
2019-04-30T06:38:29.264Z,216.00
2019-04-30T06:39:29.217Z,216.00
2019-04-30T06:40:29.453Z,212.00
2019-04-30T06:41:29.705Z,212.00
2019-04-30T06:42:29.383Z,216.00
2019-04-30T06:43:29.174Z,216.00
2019-04-30T06:44:37.251Z,216.00
2019-04-30T06:45:30.145Z,216.00
2019-04-30T06:46:29.137Z,216.00
2019-04-30T06:47:33.124Z,216.00
2019-04-30T06:48:29.506Z,216.00
2019-04-30T06:49:29.105Z,216.00
2019-04-30T06:50:29.294Z,216.00
2019-04-30T06:51:30.748Z,216.00
2019-04-30T06:52:29.379Z,216.00
2019-04-30T06:53:29.339Z,216.00
2019-04-30T06:54:29.049Z,216.00
2019-04-30T06:55:30.819Z,220.00
2019-04-30T06:56:29.036Z,220.00
2019-04-30T06:57:29.544Z,216.00
2019-04-30T06:58:29.285Z,216.00
2019-04-30T06:59:29.959Z,216.00
2019-04-30T07:00:33.773Z,216.00
2019-04-30T07:01:29.986Z,220.00
2019-04-30T07:02:39.414Z,220.00
2019-04-30T07:03:29.171Z,220.00
2019-04-30T07:04:29.383Z,220.00
2019-04-30T07:05:28.927Z,220.00
2019-04-30T07:06:31.899Z,220.00
2019-04-30T07:07:37.058Z,220.00
2019-04-30T07:08:38.893Z,220.00
2019-04-30T07:09:31.654Z,224.00
2019-04-30T07:10:29.870Z,224.00
2019-04-30T07:11:29.350Z,220.00
2019-04-30T07:12:30.614Z,220.00
2019-04-30T07:13:29.723Z,220.00
2019-04-30T07:14:29.280Z,220.00
2019-04-30T07:15:29.605Z,224.00
2019-04-30T07:16:29.827Z,224.00
2019-04-30T07:17:29.312Z,224.00
2019-04-30T07:18:28.926Z,224.00
2019-04-30T07:19:34.559Z,224.00
2019-04-30T07:20:33.712Z,224.00
2019-04-30T07:21:31.192Z,224.00
2019-04-30T07:22:39.032Z,224.00
2019-04-30T07:23:29.723Z,224.00
2019-04-30T07:24:29.625Z,220.00
2019-04-30T07:25:29.314Z,224.00
2019-04-30T07:26:29.017Z,224.00
2019-04-30T07:27:31.885Z,224.00
2019-04-30T07:28:43.776Z,224.00
2019-04-30T07:29:29.714Z,224.00
2019-04-30T07:30:30.714Z,224.00
2019-04-30T07:31:29.565Z,224.00
2019-04-30T07:32:28.887Z,224.00
2019-04-30T07:33:39.779Z,224.00
2019-04-30T07:34:31.684Z,224.00
2019-04-30T07:35:29.605Z,228.00
2019-04-30T07:36:43.299Z,224.00
2019-04-30T07:37:29.613Z,228.00
2019-04-30T07:38:29.517Z,224.00
2019-04-30T07:39:32.052Z,220.00
2019-04-30T07:40:29.270Z,224.00
2019-04-30T07:41:30.778Z,228.00
2019-04-30T07:42:29.382Z,224.00
2019-04-30T07:43:28.942Z,228.00
2019-04-30T07:44:33.326Z,224.00
2019-04-30T07:45:32.034Z,228.00
2019-04-30T07:46:29.951Z,232.00
2019-04-30T07:47:29.589Z,232.00
2019-04-30T07:48:29.800Z,232.00
2019-04-30T07:49:46.183Z,224.00
2019-04-30T07:50:31.315Z,228.00
2019-04-30T07:51:32.055Z,228.00
2019-04-30T07:52:32.984Z,232.00
2019-04-30T07:53:30.803Z,232.00
2019-04-30T07:54:30.076Z,232.00
2019-04-30T07:55:29.528Z,228.00
2019-04-30T07:56:32.456Z,232.00
2019-04-30T07:57:32.315Z,232.00
2019-04-30T07:58:29.893Z,232.00
2019-04-30T07:59:30.161Z,236.00
2019-04-30T08:00:30.912Z,236.00
2019-04-30T08:01:29.501Z,240.00
2019-04-30T08:02:29.733Z,236.00
2019-04-30T08:03:30.172Z,236.00
2019-04-30T08:04:40.847Z,240.00
2019-04-30T08:05:29.883Z,240.00
2019-04-30T08:06:31.051Z,240.00
2019-04-30T08:07:29.822Z,240.00
2019-04-30T08:08:30.050Z,240.00
2019-04-30T08:09:38.613Z,240.00
2019-04-30T08:10:29.771Z,236.00
2019-04-30T08:11:29.309Z,240.00
2019-04-30T08:12:33.561Z,240.00
2019-04-30T08:13:32.370Z,240.00
2019-04-30T08:14:28.836Z,240.00
2019-04-30T08:15:29.542Z,244.00
2019-04-30T08:16:28.799Z,240.00
2019-04-30T08:17:28.920Z,244.00
2019-04-30T08:18:29.479Z,244.00
2019-04-30T08:19:28.707Z,240.00
2019-04-30T08:20:29.555Z,244.00
2019-04-30T08:21:28.800Z,244.00
2019-04-30T08:22:29.716Z,244.00
2019-04-30T08:23:34.967Z,244.00
2019-04-30T08:24:29.274Z,244.00
2019-04-30T08:25:29.049Z,244.00
2019-04-30T08:26:28.728Z,244.00
2019-04-30T08:27:29.614Z,244.00
2019-04-30T08:28:30.168Z,244.00
2019-04-30T08:29:29.466Z,244.00
2019-04-30T08:30:30.026Z,244.00
2019-04-30T08:31:29.195Z,248.00
2019-04-30T08:32:28.961Z,248.00
2019-04-30T08:33:29.258Z,248.00
2019-04-30T08:34:29.262Z,248.00
2019-04-30T08:35:39.778Z,244.00
2019-04-30T08:36:29.783Z,244.00
2019-04-30T08:37:28.827Z,240.00
2019-04-30T08:38:29.943Z,244.00
2019-04-30T08:39:31.607Z,240.00
2019-04-30T08:40:29.611Z,244.00
2019-04-30T08:41:29.245Z,240.00
2019-04-30T08:42:31.761Z,240.00
2019-04-30T08:43:29.297Z,240.00
2019-04-30T08:44:29.483Z,244.00
2019-04-30T08:45:31.457Z,244.00
2019-04-30T08:46:28.881Z,244.00
2019-04-30T08:47:29.122Z,248.00
2019-04-30T08:48:43.869Z,248.00
2019-04-30T08:49:30.401Z,248.00
2019-04-30T08:50:29.701Z,248.00
2019-04-30T08:51:30.342Z,248.00
2019-04-30T08:52:27.743Z,248.00
2019-04-30T08:53:32.887Z,252.00
2019-04-30T08:54:29.513Z,252.00
2019-04-30T08:55:30.298Z,248.00
2019-04-30T08:56:29.663Z,232.00
2019-04-30T08:57:29.418Z,240.00
2019-04-30T08:58:29.183Z,236.00
2019-04-30T08:59:29.453Z,240.00
2019-04-30T09:00:29.607Z,236.00
2019-04-30T09:01:29.393Z,248.00
2019-04-30T09:02:28.970Z,240.00
2019-04-30T09:03:29.483Z,248.00
2019-04-30T09:04:29.095Z,252.00
2019-04-30T09:05:30.032Z,252.00
2019-04-30T09:06:38.964Z,244.00
2019-04-30T09:07:29.665Z,248.00
2019-04-30T09:08:29.322Z,256.00
2019-04-30T09:09:29.450Z,256.00
2019-04-30T09:10:29.290Z,252.00
2019-04-30T09:11:34.109Z,252.00
2019-04-30T09:12:29.978Z,252.00
2019-04-30T09:13:28.683Z,252.00
2019-04-30T09:14:29.528Z,256.00
2019-04-30T09:15:29.064Z,256.00
2019-04-30T09:16:29.364Z,256.00
2019-04-30T09:17:29.593Z,256.00
2019-04-30T09:18:29.175Z,256.00
2019-04-30T09:19:29.580Z,252.00
2019-04-30T09:20:29.143Z,252.00
2019-04-30T09:21:27.415Z,244.00
2019-04-30T09:22:29.233Z,252.00
2019-04-30T09:23:34.317Z,252.00
2019-04-30T09:24:30.782Z,256.00
2019-04-30T09:25:28.694Z,248.00
2019-04-30T09:26:29.033Z,252.00
2019-04-30T09:27:29.450Z,248.00
2019-04-30T09:28:29.350Z,248.00
2019-04-30T09:29:29.099Z,256.00
2019-04-30T09:30:27.388Z,240.00
2019-04-30T09:31:29.391Z,248.00
2019-04-30T09:32:29.126Z,256.00
2019-04-30T09:33:29.299Z,252.00
2019-04-30T09:34:29.116Z,256.00
2019-04-30T09:35:29.592Z,256.00
2019-04-30T09:36:29.082Z,256.00
2019-04-30T09:37:39.074Z,256.00
2019-04-30T09:38:28.977Z,248.00
2019-04-30T09:39:29.355Z,256.00
2019-04-30T09:40:30.263Z,252.00
2019-04-30T09:41:28.800Z,248.00
2019-04-30T09:42:29.484Z,252.00
2019-04-30T09:43:28.612Z,252.00
2019-04-30T09:44:30.533Z,240.00
2019-04-30T09:45:28.573Z,256.00
2019-04-30T09:46:29.699Z,256.00
2019-04-30T09:47:27.133Z,260.00
2019-04-30T09:48:30.296Z,260.00
2019-04-30T09:49:27.119Z,260.00
2019-04-30T09:50:28.966Z,264.00
2019-04-30T09:51:29.404Z,264.00
2019-04-30T09:52:30.229Z,260.00
2019-04-30T09:53:27.079Z,260.00
2019-04-30T09:54:29.051Z,260.00
2019-04-30T09:55:28.908Z,264.00
2019-04-30T09:56:27.033Z,268.00
2019-04-30T09:57:29.023Z,264.00
2019-04-30T09:58:27.021Z,260.00
2019-04-30T09:59:28.948Z,264.00
2019-04-30T10:00:26.992Z,264.00
2019-04-30T10:01:26.981Z,264.00
2019-04-30T10:02:28.952Z,256.00
2019-04-30T10:03:27.208Z,264.00
2019-04-30T10:04:29.686Z,264.00
2019-04-30T10:05:29.062Z,268.00
2019-04-30T10:06:39.024Z,252.00
2019-04-30T10:07:29.372Z,268.00
2019-04-30T10:08:47.885Z,268.00
2019-04-30T10:09:29.328Z,268.00
2019-04-30T10:10:28.815Z,268.00
2019-04-30T10:11:26.867Z,264.00
2019-04-30T10:12:26.862Z,248.00
2019-04-30T10:13:26.850Z,260.00
2019-04-30T10:14:26.871Z,256.00
2019-04-30T10:15:28.842Z,248.00
2019-04-30T10:16:26.814Z,236.00
2019-04-30T10:17:26.805Z,268.00
2019-04-30T10:18:26.798Z,264.00
2019-04-30T10:19:26.780Z,260.00
2019-04-30T10:20:26.775Z,268.00
2019-04-30T10:21:26.763Z,264.00
2019-04-30T10:22:26.750Z,268.00
2019-04-30T10:23:26.735Z,80.00
2019-04-30T10:24:26.730Z,76.00
2019-04-30T10:25:26.718Z,76.00
2019-04-30T10:26:26.709Z,76.00
2019-04-30T10:27:29.183Z,76.00
2019-04-30T10:28:26.679Z,76.00
2019-04-30T10:29:26.676Z,80.00
2019-04-30T10:30:26.698Z,80.00
2019-04-30T10:31:26.651Z,76.00
2019-04-30T10:32:26.641Z,80.00
2019-04-30T10:33:28.576Z,80.00
2019-04-30T10:34:26.621Z,80.00
2019-04-30T10:35:28.455Z,80.00
2019-04-30T10:36:26.611Z,84.00
2019-04-30T10:37:28.630Z,80.00
2019-04-30T10:38:26.573Z,76.00
2019-04-30T10:39:38.777Z,80.00
2019-04-30T10:40:28.567Z,80.00
2019-04-30T10:41:28.624Z,80.00
2019-04-30T10:42:28.718Z,80.00
2019-04-30T10:43:26.514Z,76.00
2019-04-30T10:44:26.505Z,80.00
2019-04-30T10:45:28.636Z,76.00
2019-04-30T10:46:26.486Z,76.00
2019-04-30T10:47:26.510Z,76.00
2019-04-30T10:48:26.466Z,80.00
2019-04-30T10:49:26.503Z,80.00
2019-04-30T10:50:26.439Z,80.00
2019-04-30T10:51:26.434Z,80.00
2019-04-30T10:52:26.428Z,80.00
2019-04-30T10:53:26.451Z,80.00
2019-04-30T10:54:27.017Z,80.00
2019-04-30T10:55:26.382Z,80.00
2019-04-30T10:56:26.376Z,76.00
2019-04-30T10:57:28.380Z,80.00
2019-04-30T10:58:26.352Z,80.00
2019-04-30T10:59:26.348Z,76.00
2019-04-30T11:00:26.326Z,76.00
2019-04-30T11:01:26.318Z,76.00
2019-04-30T11:02:26.307Z,76.00
2019-04-30T11:03:26.293Z,76.00
2019-04-30T11:04:26.323Z,80.00
2019-04-30T11:05:26.273Z,80.00
2019-04-30T11:06:26.266Z,80.00
2019-04-30T11:07:26.254Z,80.00
2019-04-30T11:08:26.238Z,80.00
2019-04-30T11:09:26.233Z,80.00
2019-04-30T11:10:39.936Z,80.00
2019-04-30T11:11:26.208Z,80.00
2019-04-30T11:12:26.201Z,80.00
2019-04-30T11:13:26.184Z,84.00
2019-04-30T11:14:26.180Z,84.00
2019-04-30T11:15:26.164Z,80.00
2019-04-30T11:16:26.178Z,80.00
2019-04-30T11:17:26.292Z,84.00
2019-04-30T11:18:26.360Z,80.00
2019-04-30T11:19:26.344Z,80.00
2019-04-30T11:20:26.320Z,80.00
2019-04-30T11:21:26.313Z,80.00
2019-04-30T11:22:26.321Z,80.00
2019-04-30T11:23:26.288Z,76.00
2019-04-30T11:24:35.892Z,80.00
2019-04-30T11:25:27.772Z,80.00
2019-04-30T11:26:26.576Z,80.00
2019-04-30T11:27:26.552Z,76.00
2019-04-30T11:28:26.596Z,76.00
2019-04-30T11:29:26.228Z,76.00
2019-04-30T11:30:26.267Z,76.00
2019-04-30T11:31:26.284Z,76.00
2019-04-30T11:32:26.283Z,76.00
2019-04-30T11:33:26.106Z,80.00
2019-04-30T11:34:28.116Z,76.00
2019-04-30T11:35:25.944Z,76.00
2019-04-30T11:36:25.938Z,76.00
2019-04-30T11:37:25.923Z,76.00
2019-04-30T11:38:25.929Z,76.00
2019-04-30T11:39:25.925Z,76.00
2019-04-30T11:40:33.930Z,76.00
2019-04-30T11:42:39.322Z,76.00
2019-04-30T11:43:39.471Z,76.00
2019-04-30T11:44:40.331Z,76.00
2019-04-30T11:45:39.241Z,76.00
2019-04-30T11:46:39.230Z,76.00
2019-04-30T11:47:39.217Z,72.00
2019-04-30T11:48:39.258Z,72.00
2019-04-30T11:49:39.201Z,72.00
2019-04-30T11:50:39.426Z,76.00
2019-04-30T11:51:39.319Z,76.00
2019-04-30T11:52:39.165Z,76.00
2019-04-30T11:53:39.159Z,76.00
2019-04-30T11:54:48.703Z,76.00
2019-04-30T11:55:40.129Z,76.00
2019-04-30T11:56:39.120Z,76.00
2019-04-30T11:57:39.742Z,76.00
2019-04-30T11:58:39.102Z,72.00
2019-04-30T11:59:39.598Z,72.00
2019-04-30T12:00:39.527Z,72.00
2019-04-30T12:01:39.065Z,76.00
2019-04-30T12:02:39.360Z,72.00
2019-04-30T12:03:39.433Z,72.00
2019-04-30T12:04:39.404Z,72.00
2019-04-30T12:05:39.028Z,76.00
2019-04-30T12:06:39.453Z,72.00
2019-04-30T12:07:38.998Z,72.00
2019-04-30T12:08:39.301Z,72.00
2019-04-30T12:09:38.976Z,72.00
2019-04-30T12:10:39.231Z,72.00
2019-04-30T12:11:39.004Z,72.00
2019-04-30T12:12:45.930Z,72.00
2019-04-30T12:13:38.932Z,72.00
2019-04-30T12:14:39.554Z,68.00
2019-04-30T12:15:38.916Z,72.00
2019-04-30T12:16:39.611Z,68.00
2019-04-30T12:17:38.938Z,68.00
2019-04-30T12:18:38.876Z,68.00
2019-04-30T12:19:38.958Z,72.00
2019-04-30T12:20:38.857Z,72.00
2019-04-30T12:21:38.843Z,72.00
2019-04-30T12:22:39.698Z,72.00
2019-04-30T12:23:38.831Z,72.00
2019-04-30T12:24:38.931Z,72.00
2019-04-30T12:25:41.201Z,72.00
2019-04-30T12:26:39.001Z,72.00
2019-04-30T12:27:38.795Z,68.00
2019-04-30T12:28:38.818Z,68.00
2019-04-30T12:29:39.750Z,68.00
2019-04-30T12:30:39.183Z,68.00
2019-04-30T12:31:38.739Z,68.00
2019-04-30T12:32:39.323Z,68.00
2019-04-30T12:33:38.715Z,72.00
2019-04-30T12:34:38.758Z,72.00
2019-04-30T12:35:38.690Z,72.00
2019-04-30T12:36:38.869Z,68.00
2019-04-30T12:37:39.166Z,68.00
2019-04-30T12:38:38.665Z,68.00
2019-04-30T12:39:39.485Z,68.00
2019-04-30T12:40:38.970Z,68.00
2019-04-30T12:41:40.398Z,68.00
2019-04-30T12:42:38.613Z,68.00
2019-04-30T12:43:48.660Z,68.00
2019-04-30T12:44:40.075Z,64.00
2019-04-30T12:45:39.377Z,64.00
2019-04-30T12:46:38.758Z,68.00
2019-04-30T12:47:38.562Z,68.00
2019-04-30T12:48:39.580Z,68.00
2019-04-30T12:49:39.678Z,68.00
2019-04-30T12:50:39.230Z,68.00
2019-04-30T12:51:45.599Z,64.00
2019-04-30T12:52:39.574Z,64.00